EWG39X ENBR-EDDK
Flight info
| Callsign | EWG39X |
|---|---|
| Flight time | 1h 40m |
| Altitude | 37000 |
| Route | TINIG DCT DOSUR DCT LARBU/N0455F380 Z189 RUNER/N0423F240 T858 KOPAG |
| Aircraft | A319/M-SDE3FGHIRWY/LB1 |
Departure
| Time | 2026-05-06 16:59 |
|---|---|
| Airport | Bergen Airport, Flesland (ENBR) |
Arrival
| Time | 2026-05-06 18:39 |
|---|---|
| Airport | Cologne Bonn Airport (EDDK) |
| Time | Latitude | Longitude | Altitude | Speed | Heading |
|---|---|---|---|---|---|
| 2026-05-06 16:24 | 60.28863 | 5.22567 | 175 ft | 0 kts | 60° |
| 2026-05-06 16:50 | 60.28856 | 5.22540 | 175 ft | 4 kts | 72° |
| 2026-05-06 16:51 | 60.28851 | 5.22488 | 175 ft | 4 kts | 83° |
| 2026-05-06 16:51 | 60.28849 | 5.22459 | 175 ft | 0 kts | 75° |
| 2026-05-06 16:54 | 60.28850 | 5.22461 | 175 ft | 0 kts | 68° |
| 2026-05-06 16:54 | 60.28861 | 5.22463 | 175 ft | 4 kts | 358° |
| 2026-05-06 16:54 | 60.28893 | 5.22413 | 175 ft | 7 kts | 328° |
| 2026-05-06 16:54 | 60.28935 | 5.22367 | 175 ft | 7 kts | 308° |
| 2026-05-06 16:55 | 60.28961 | 5.22271 | 172 ft | 10 kts | 335° |
| 2026-05-06 16:55 | 60.29024 | 5.22245 | 174 ft | 9 kts | 351° |
| 2026-05-06 16:55 | 60.29099 | 5.22221 | 174 ft | 13 kts | 350° |
| 2026-05-06 16:55 | 60.29220 | 5.22177 | 168 ft | 22 kts | 350° |
| 2026-05-06 16:56 | 60.29395 | 5.22117 | 160 ft | 28 kts | 350° |
| 2026-05-06 16:56 | 60.29593 | 5.22052 | 153 ft | 30 kts | 351° |
| 2026-05-06 16:56 | 60.29808 | 5.21979 | 150 ft | 31 kts | 350° |
| 2026-05-06 16:56 | 60.30012 | 5.21910 | 158 ft | 28 kts | 350° |
| 2026-05-06 16:57 | 60.30195 | 5.21849 | 166 ft | 25 kts | 351° |
| 2026-05-06 16:57 | 60.30358 | 5.21795 | 174 ft | 22 kts | 351° |
| 2026-05-06 16:57 | 60.30444 | 5.21721 | 177 ft | 11 kts | 289° |
| 2026-05-06 16:57 | 60.30427 | 5.21554 | 174 ft | 14 kts | 252° |
| 2026-05-06 16:58 | 60.30389 | 5.21464 | 173 ft | 7 kts | 172° |
| 2026-05-06 16:58 | 60.30324 | 5.21486 | 171 ft | 14 kts | 170° |
| 2026-05-06 16:58 | 60.30021 | 5.21586 | 159 ft | 82 kts | 171° |
| 2026-05-06 16:58 | 60.29245 | 5.21838 | 159 ft | 143 kts | 171° |
| 2026-05-06 16:59 | 60.28242 | 5.22179 | 708 ft | 146 kts | 175° |
| 2026-05-06 16:59 | 60.27217 | 5.22528 | 1348 ft | 151 kts | 175° |
| 2026-05-06 16:59 | 60.26103 | 5.22897 | 1720 ft | 174 kts | 174° |
| 2026-05-06 16:59 | 60.24841 | 5.23309 | 2118 ft | 194 kts | 175° |
| 2026-05-06 17:00 | 60.23434 | 5.23769 | 2497 ft | 218 kts | 174° |
| 2026-05-06 17:00 | 60.21859 | 5.24291 | 3034 ft | 240 kts | 173° |
| 2026-05-06 17:00 | 60.20148 | 5.24937 | 3723 ft | 261 kts | 165° |
| 2026-05-06 17:00 | 60.18646 | 5.26976 | 4560 ft | 274 kts | 129° |
| 2026-05-06 17:01 | 60.17860 | 5.30462 | 5524 ft | 278 kts | 104° |
| 2026-05-06 17:01 | 60.17415 | 5.34244 | 6580 ft | 279 kts | 104° |
| 2026-05-06 17:01 | 60.16903 | 5.38021 | 7550 ft | 282 kts | 105° |
| 2026-05-06 17:01 | 60.16364 | 5.41825 | 8500 ft | 285 kts | 106° |
| 2026-05-06 17:02 | 60.15790 | 5.45673 | 9423 ft | 290 kts | 107° |
| 2026-05-06 17:02 | 60.15411 | 5.49660 | 10245 ft | 296 kts | 87° |
| 2026-05-06 17:02 | 60.15954 | 5.53759 | 10565 ft | 317 kts | 62° |
| 2026-05-06 17:02 | 60.16902 | 5.57937 | 10815 ft | 343 kts | 72° |
| 2026-05-06 17:03 | 60.16989 | 5.62835 | 11243 ft | 361 kts | 101° |
| 2026-05-06 17:03 | 60.16152 | 5.67553 | 11925 ft | 368 kts | 119° |
| 2026-05-06 17:03 | 60.14593 | 5.71635 | 12656 ft | 372 kts | 139° |
| 2026-05-06 17:03 | 60.12433 | 5.74448 | 13392 ft | 372 kts | 160° |
| 2026-05-06 17:04 | 60.10010 | 5.76349 | 14131 ft | 376 kts | 163° |
| 2026-05-06 17:04 | 60.07545 | 5.78206 | 14816 ft | 380 kts | 164° |
| 2026-05-06 17:04 | 60.05046 | 5.80063 | 15471 ft | 385 kts | 165° |
| 2026-05-06 17:04 | 60.02520 | 5.81938 | 16126 ft | 389 kts | 166° |
| 2026-05-06 17:05 | 59.99975 | 5.83832 | 16836 ft | 392 kts | 166° |
| 2026-05-06 17:05 | 59.97411 | 5.85749 | 17537 ft | 395 kts | 166° |
| 2026-05-06 17:05 | 59.94861 | 5.87660 | 18222 ft | 398 kts | 166° |
| 2026-05-06 17:05 | 59.92258 | 5.89616 | 18829 ft | 402 kts | 167° |
| 2026-05-06 17:06 | 59.89631 | 5.91595 | 19406 ft | 406 kts | 167° |
| 2026-05-06 17:06 | 59.86977 | 5.93601 | 20023 ft | 410 kts | 167° |
| 2026-05-06 17:06 | 59.84307 | 5.95618 | 20593 ft | 411 kts | 167° |
| 2026-05-06 17:06 | 59.81617 | 5.97642 | 21061 ft | 416 kts | 167° |
| 2026-05-06 17:07 | 59.78900 | 5.99676 | 21603 ft | 419 kts | 168° |
| 2026-05-06 17:07 | 59.76155 | 6.01724 | 22138 ft | 424 kts | 168° |
| 2026-05-06 17:07 | 59.73384 | 6.03791 | 22586 ft | 427 kts | 167° |
| 2026-05-06 17:07 | 59.70626 | 6.05846 | 23076 ft | 431 kts | 167° |
| 2026-05-06 17:08 | 59.67815 | 6.07934 | 23549 ft | 434 kts | 167° |
| 2026-05-06 17:08 | 59.64974 | 6.10042 | 23975 ft | 437 kts | 167° |
| 2026-05-06 17:08 | 59.62121 | 6.12163 | 24452 ft | 438 kts | 167° |
| 2026-05-06 17:08 | 59.59265 | 6.14288 | 24920 ft | 439 kts | 168° |
| 2026-05-06 17:09 | 59.56402 | 6.16416 | 25386 ft | 440 kts | 168° |
| 2026-05-06 17:09 | 59.53529 | 6.18542 | 25868 ft | 441 kts | 168° |
| 2026-05-06 17:09 | 59.50656 | 6.20663 | 26335 ft | 442 kts | 168° |
| 2026-05-06 17:09 | 59.47814 | 6.22749 | 26760 ft | 442 kts | 168° |
| 2026-05-06 17:10 | 59.44927 | 6.24865 | 27113 ft | 444 kts | 168° |
| 2026-05-06 17:10 | 59.42033 | 6.26984 | 27553 ft | 444 kts | 168° |
| 2026-05-06 17:10 | 59.39132 | 6.29103 | 27974 ft | 446 kts | 168° |
| 2026-05-06 17:10 | 59.36218 | 6.31231 | 28389 ft | 447 kts | 168° |
| 2026-05-06 17:11 | 59.33307 | 6.33353 | 28763 ft | 448 kts | 168° |
| 2026-05-06 17:11 | 59.30375 | 6.35483 | 29118 ft | 449 kts | 168° |
| 2026-05-06 17:11 | 59.27445 | 6.37608 | 29563 ft | 449 kts | 168° |
| 2026-05-06 17:11 | 59.24525 | 6.39725 | 30114 ft | 446 kts | 168° |
| 2026-05-06 17:12 | 59.21622 | 6.41828 | 30561 ft | 444 kts | 168° |
| 2026-05-06 17:12 | 59.18726 | 6.43921 | 30950 ft | 443 kts | 168° |
| 2026-05-06 17:12 | 59.15869 | 6.45978 | 31301 ft | 444 kts | 168° |
| 2026-05-06 17:12 | 59.12968 | 6.48062 | 31522 ft | 446 kts | 167° |
| 2026-05-06 17:13 | 59.10053 | 6.50154 | 31843 ft | 447 kts | 167° |
| 2026-05-06 17:13 | 59.07135 | 6.52245 | 32202 ft | 447 kts | 167° |
| 2026-05-06 17:13 | 59.04216 | 6.54332 | 32556 ft | 447 kts | 167° |
| 2026-05-06 17:13 | 59.01298 | 6.56414 | 32937 ft | 447 kts | 167° |
| 2026-05-06 17:14 | 58.98375 | 6.58495 | 33269 ft | 447 kts | 167° |
| 2026-05-06 17:14 | 58.95455 | 6.60572 | 33625 ft | 448 kts | 167° |
| 2026-05-06 17:14 | 58.92568 | 6.62625 | 33961 ft | 448 kts | 167° |
| 2026-05-06 17:14 | 58.89644 | 6.64707 | 34254 ft | 448 kts | 167° |
| 2026-05-06 17:15 | 58.86716 | 6.66782 | 34529 ft | 448 kts | 167° |
| 2026-05-06 17:15 | 58.83786 | 6.68845 | 34790 ft | 448 kts | 167° |
| 2026-05-06 17:15 | 58.80856 | 6.70901 | 35057 ft | 448 kts | 166° |
| 2026-05-06 17:15 | 58.77919 | 6.72958 | 35285 ft | 449 kts | 166° |
| 2026-05-06 17:16 | 58.74979 | 6.75019 | 35507 ft | 450 kts | 166° |
| 2026-05-06 17:16 | 58.72035 | 6.77085 | 35758 ft | 451 kts | 166° |
| 2026-05-06 17:16 | 58.69082 | 6.79163 | 35976 ft | 452 kts | 166° |
| 2026-05-06 17:16 | 58.66131 | 6.81234 | 36178 ft | 453 kts | 166° |
| 2026-05-06 17:17 | 58.63168 | 6.83302 | 36388 ft | 453 kts | 166° |
| 2026-05-06 17:17 | 58.60239 | 6.85340 | 36582 ft | 454 kts | 166° |
| 2026-05-06 17:17 | 58.57282 | 6.87396 | 36778 ft | 455 kts | 166° |
| 2026-05-06 17:17 | 58.54304 | 6.89463 | 36941 ft | 455 kts | 166° |
| 2026-05-06 17:18 | 58.51329 | 6.91521 | 37002 ft | 455 kts | 166° |
| 2026-05-06 17:18 | 58.45372 | 6.95629 | 37001 ft | 455 kts | 166° |
| 2026-05-06 17:19 | 58.39425 | 6.99726 | 36989 ft | 455 kts | 166° |
| 2026-05-06 17:19 | 58.33510 | 7.03777 | 36990 ft | 455 kts | 166° |
| 2026-05-06 17:20 | 58.27554 | 7.07839 | 36950 ft | 455 kts | 166° |
| 2026-05-06 17:20 | 58.21608 | 7.11889 | 36977 ft | 454 kts | 166° |
| 2026-05-06 17:21 | 58.15666 | 7.15915 | 36976 ft | 454 kts | 166° |
| 2026-05-06 17:21 | 58.09719 | 7.19923 | 36967 ft | 454 kts | 166° |
| 2026-05-06 17:22 | 58.03810 | 7.23902 | 36969 ft | 454 kts | 166° |
| 2026-05-06 17:22 | 57.97864 | 7.27903 | 36962 ft | 453 kts | 166° |
| 2026-05-06 17:23 | 57.91925 | 7.31881 | 36979 ft | 453 kts | 166° |
| 2026-05-06 17:23 | 57.85999 | 7.35834 | 36972 ft | 451 kts | 166° |
| 2026-05-06 17:24 | 57.80123 | 7.39727 | 36977 ft | 451 kts | 166° |
| 2026-05-06 17:24 | 57.74207 | 7.43638 | 36975 ft | 451 kts | 166° |
| 2026-05-06 17:25 | 57.68297 | 7.47532 | 36981 ft | 450 kts | 166° |
| 2026-05-06 17:25 | 57.62381 | 7.51423 | 36982 ft | 450 kts | 166° |
| 2026-05-06 17:26 | 57.56476 | 7.55300 | 36988 ft | 450 kts | 166° |
| 2026-05-06 17:26 | 57.50607 | 7.59124 | 36989 ft | 450 kts | 166° |
| 2026-05-06 17:27 | 57.44701 | 7.62968 | 36994 ft | 450 kts | 166° |
| 2026-05-06 17:27 | 57.38789 | 7.66804 | 36993 ft | 449 kts | 166° |
| 2026-05-06 17:28 | 57.32891 | 7.70608 | 36992 ft | 449 kts | 166° |
| 2026-05-06 17:28 | 57.26995 | 7.74408 | 36994 ft | 449 kts | 166° |
| 2026-05-06 17:29 | 57.21149 | 7.78161 | 37000 ft | 447 kts | 166° |
| 2026-05-06 17:29 | 57.15282 | 7.81915 | 36996 ft | 446 kts | 166° |
| 2026-05-06 17:30 | 57.09415 | 7.85653 | 36998 ft | 446 kts | 166° |
| 2026-05-06 17:30 | 57.03547 | 7.89375 | 36999 ft | 446 kts | 166° |
| 2026-05-06 17:31 | 56.97677 | 7.93091 | 37004 ft | 446 kts | 166° |
| 2026-05-06 17:31 | 56.91851 | 7.96763 | 37001 ft | 446 kts | 166° |
| 2026-05-06 17:32 | 56.85983 | 8.00454 | 36997 ft | 446 kts | 166° |
| 2026-05-06 17:32 | 56.80121 | 8.04131 | 36997 ft | 445 kts | 166° |
| 2026-05-06 17:33 | 56.74263 | 8.07794 | 36997 ft | 445 kts | 166° |
| 2026-05-06 17:33 | 56.68404 | 8.11435 | 37000 ft | 445 kts | 166° |
| 2026-05-06 17:34 | 56.62583 | 8.15048 | 36973 ft | 445 kts | 166° |
| 2026-05-06 17:34 | 56.56725 | 8.18681 | 36969 ft | 444 kts | 166° |
| 2026-05-06 17:35 | 56.50921 | 8.22273 | 36992 ft | 444 kts | 166° |
| 2026-05-06 17:35 | 56.45063 | 8.25866 | 36985 ft | 444 kts | 166° |
| 2026-05-06 17:36 | 56.36316 | 8.31206 | 36976 ft | 444 kts | 166° |
| 2026-05-06 17:36 | 56.30458 | 8.34777 | 36974 ft | 444 kts | 166° |
| 2026-05-06 17:37 | 56.24602 | 8.38323 | 36976 ft | 444 kts | 166° |
| 2026-05-06 17:37 | 56.18750 | 8.41873 | 36970 ft | 444 kts | 166° |
| 2026-05-06 17:38 | 56.12937 | 8.45405 | 36964 ft | 444 kts | 166° |
| 2026-05-06 17:38 | 56.07083 | 8.48929 | 36962 ft | 444 kts | 166° |
| 2026-05-06 17:39 | 56.01227 | 8.52427 | 36955 ft | 444 kts | 166° |
| 2026-05-06 17:39 | 55.95375 | 8.55907 | 36954 ft | 443 kts | 166° |
| 2026-05-06 17:40 | 55.89531 | 8.59400 | 36962 ft | 443 kts | 166° |
| 2026-05-06 17:40 | 55.83722 | 8.62853 | 36953 ft | 443 kts | 166° |
| 2026-05-06 17:41 | 55.77872 | 8.66313 | 36937 ft | 443 kts | 166° |
| 2026-05-06 17:41 | 55.72026 | 8.69768 | 36947 ft | 443 kts | 166° |
| 2026-05-06 17:42 | 55.66176 | 8.73225 | 36945 ft | 443 kts | 166° |
| 2026-05-06 17:42 | 55.60321 | 8.76663 | 36942 ft | 443 kts | 166° |
| 2026-05-06 17:43 | 55.54503 | 8.80050 | 36951 ft | 443 kts | 166° |
| 2026-05-06 17:43 | 55.48644 | 8.83472 | 36941 ft | 443 kts | 166° |
| 2026-05-06 17:44 | 55.42788 | 8.86886 | 36946 ft | 444 kts | 166° |
| 2026-05-06 17:44 | 55.36927 | 8.90282 | 36934 ft | 443 kts | 166° |
| 2026-05-06 17:45 | 55.31067 | 8.93654 | 36939 ft | 443 kts | 166° |
| 2026-05-06 17:45 | 55.25255 | 8.96993 | 36942 ft | 443 kts | 166° |
| 2026-05-06 17:46 | 55.19399 | 9.00356 | 36944 ft | 443 kts | 166° |
| 2026-05-06 17:46 | 55.13545 | 9.03711 | 36939 ft | 443 kts | 165° |
| 2026-05-06 17:47 | 55.07683 | 9.07063 | 36938 ft | 443 kts | 166° |
| 2026-05-06 17:47 | 55.01827 | 9.10399 | 36936 ft | 443 kts | 166° |
| 2026-05-06 17:48 | 54.96008 | 9.13705 | 36929 ft | 443 kts | 166° |
| 2026-05-06 17:48 | 54.90142 | 9.17003 | 36920 ft | 443 kts | 166° |
| 2026-05-06 17:49 | 54.84177 | 9.19348 | 36923 ft | 437 kts | 179° |
| 2026-05-06 17:49 | 54.79147 | 9.19426 | 36921 ft | 435 kts | 183° |
| 2026-05-06 17:50 | 54.72067 | 9.19398 | 36923 ft | 435 kts | 183° |
| 2026-05-06 17:50 | 54.66017 | 9.19402 | 36923 ft | 435 kts | 183° |
| 2026-05-06 17:51 | 54.59952 | 9.19404 | 36923 ft | 435 kts | 183° |
| 2026-05-06 17:51 | 54.53935 | 9.19410 | 36923 ft | 435 kts | 183° |
| 2026-05-06 17:52 | 54.47877 | 9.19409 | 36924 ft | 436 kts | 183° |
| 2026-05-06 17:52 | 54.41815 | 9.19391 | 36924 ft | 436 kts | 183° |
| 2026-05-06 17:53 | 54.35751 | 9.19385 | 36915 ft | 436 kts | 182° |
| 2026-05-06 17:53 | 54.29723 | 9.19394 | 36905 ft | 436 kts | 182° |
| 2026-05-06 17:54 | 54.23656 | 9.19409 | 36907 ft | 436 kts | 182° |
| 2026-05-06 17:54 | 54.17584 | 9.19403 | 36896 ft | 436 kts | 183° |
| 2026-05-06 17:55 | 54.11516 | 9.19396 | 36897 ft | 436 kts | 182° |
| 2026-05-06 17:55 | 54.05445 | 9.19388 | 36896 ft | 436 kts | 182° |
| 2026-05-06 17:56 | 53.99373 | 9.19379 | 36898 ft | 436 kts | 182° |
| 2026-05-06 17:56 | 53.93341 | 9.19379 | 36898 ft | 436 kts | 182° |
| 2026-05-06 17:57 | 53.87271 | 9.19377 | 36892 ft | 437 kts | 182° |
| 2026-05-06 17:57 | 53.81188 | 9.19382 | 36895 ft | 437 kts | 182° |
| 2026-05-06 17:58 | 53.75117 | 9.19373 | 36895 ft | 437 kts | 182° |
| 2026-05-06 17:58 | 53.69040 | 9.19373 | 36895 ft | 437 kts | 182° |
| 2026-05-06 17:59 | 53.63003 | 9.19371 | 36886 ft | 437 kts | 182° |
| 2026-05-06 17:59 | 53.56915 | 9.19367 | 36895 ft | 437 kts | 182° |
| 2026-05-06 18:00 | 53.50831 | 9.19366 | 36898 ft | 437 kts | 182° |
| 2026-05-06 18:00 | 53.45006 | 9.19373 | 36901 ft | 437 kts | 182° |
| 2026-05-06 18:01 | 53.38916 | 9.19375 | 36892 ft | 437 kts | 182° |
| 2026-05-06 18:01 | 53.32833 | 9.19362 | 36893 ft | 437 kts | 182° |
| 2026-05-06 18:02 | 53.26741 | 9.19354 | 36897 ft | 438 kts | 182° |
| 2026-05-06 18:02 | 53.20653 | 9.19350 | 36893 ft | 438 kts | 182° |
| 2026-05-06 18:03 | 53.14563 | 9.19355 | 36891 ft | 438 kts | 182° |
| 2026-05-06 18:03 | 53.08530 | 9.19358 | 36867 ft | 437 kts | 182° |
| 2026-05-06 18:04 | 53.02450 | 9.19352 | 36876 ft | 437 kts | 182° |
| 2026-05-06 18:04 | 52.96380 | 9.19350 | 36876 ft | 436 kts | 182° |
| 2026-05-06 18:05 | 52.90310 | 9.19344 | 36876 ft | 436 kts | 182° |
| 2026-05-06 18:05 | 52.84285 | 9.19334 | 36862 ft | 436 kts | 182° |
| 2026-05-06 18:06 | 52.78225 | 9.19328 | 36860 ft | 436 kts | 182° |
| 2026-05-06 18:06 | 52.72161 | 9.19338 | 36863 ft | 436 kts | 182° |
| 2026-05-06 18:07 | 52.66094 | 9.19347 | 36859 ft | 436 kts | 182° |
| 2026-05-06 18:07 | 52.60026 | 9.19340 | 36846 ft | 436 kts | 182° |
| 2026-05-06 18:08 | 52.54002 | 9.19330 | 36847 ft | 436 kts | 182° |
| 2026-05-06 18:08 | 52.47937 | 9.19326 | 36837 ft | 436 kts | 182° |
| 2026-05-06 18:09 | 52.41876 | 9.19325 | 36837 ft | 436 kts | 182° |
| 2026-05-06 18:09 | 52.35813 | 9.19322 | 36827 ft | 435 kts | 182° |
| 2026-05-06 18:10 | 52.29755 | 9.19327 | 36830 ft | 435 kts | 182° |
| 2026-05-06 18:10 | 52.23736 | 9.19328 | 36831 ft | 436 kts | 182° |
| 2026-05-06 18:11 | 52.18697 | 9.19322 | 36832 ft | 436 kts | 182° |
| 2026-05-06 18:11 | 52.11613 | 9.19316 | 36828 ft | 436 kts | 182° |
| 2026-05-06 18:12 | 52.05553 | 9.19318 | 36833 ft | 435 kts | 182° |
| 2026-05-06 18:12 | 51.99566 | 9.19309 | 36830 ft | 435 kts | 182° |
| 2026-05-06 18:13 | 51.93690 | 9.19086 | 36827 ft | 433 kts | 190° |
| 2026-05-06 18:13 | 51.90773 | 9.18006 | 36820 ft | 429 kts | 201° |
| 2026-05-06 18:13 | 51.88052 | 9.16065 | 36825 ft | 427 kts | 211° |
| 2026-05-06 18:14 | 51.84195 | 9.11161 | 36805 ft | 425 kts | 227° |
| 2026-05-06 18:14 | 51.82254 | 9.07582 | 36547 ft | 420 kts | 229° |
| 2026-05-06 18:14 | 51.80350 | 9.04036 | 36290 ft | 416 kts | 229° |
| 2026-05-06 18:15 | 51.78448 | 9.00487 | 36040 ft | 421 kts | 229° |
| 2026-05-06 18:15 | 51.76518 | 8.96901 | 35792 ft | 425 kts | 229° |
| 2026-05-06 18:15 | 51.73939 | 8.92134 | 35471 ft | 425 kts | 229° |
| 2026-05-06 18:15 | 51.72017 | 8.88589 | 35219 ft | 415 kts | 229° |
| 2026-05-06 18:16 | 51.70728 | 8.86217 | 35049 ft | 419 kts | 228° |
| 2026-05-06 18:16 | 51.68796 | 8.82662 | 34810 ft | 424 kts | 228° |
| 2026-05-06 18:16 | 51.66884 | 8.79145 | 34571 ft | 420 kts | 229° |
| 2026-05-06 18:16 | 51.64980 | 8.75644 | 34253 ft | 411 kts | 228° |
| 2026-05-06 18:17 | 51.63103 | 8.72217 | 33907 ft | 404 kts | 226° |
| 2026-05-06 18:17 | 51.61076 | 8.69152 | 33515 ft | 398 kts | 219° |
| 2026-05-06 18:17 | 51.58825 | 8.66608 | 33090 ft | 393 kts | 211° |
| 2026-05-06 18:17 | 51.56446 | 8.64469 | 32685 ft | 390 kts | 210° |
| 2026-05-06 18:18 | 51.54086 | 8.62360 | 32285 ft | 388 kts | 210° |
| 2026-05-06 18:18 | 51.51737 | 8.60254 | 31882 ft | 386 kts | 210° |
| 2026-05-06 18:18 | 51.49394 | 8.58152 | 31487 ft | 385 kts | 210° |
| 2026-05-06 18:18 | 51.47067 | 8.56065 | 31107 ft | 382 kts | 210° |
| 2026-05-06 18:19 | 51.44754 | 8.53994 | 30735 ft | 380 kts | 210° |
| 2026-05-06 18:19 | 51.42481 | 8.51962 | 30356 ft | 379 kts | 210° |
| 2026-05-06 18:19 | 51.40080 | 8.49822 | 29978 ft | 402 kts | 210° |
| 2026-05-06 18:19 | 51.37586 | 8.47602 | 29339 ft | 428 kts | 210° |
| 2026-05-06 18:20 | 51.34936 | 8.45249 | 28653 ft | 441 kts | 210° |
| 2026-05-06 18:20 | 51.32233 | 8.42847 | 27975 ft | 447 kts | 210° |
| 2026-05-06 18:20 | 51.29596 | 8.40201 | 27350 ft | 449 kts | 218° |
| 2026-05-06 18:20 | 51.27302 | 8.36821 | 26701 ft | 449 kts | 229° |
| 2026-05-06 18:21 | 51.25476 | 8.32828 | 26086 ft | 443 kts | 239° |
| 2026-05-06 18:21 | 51.23953 | 8.28582 | 25482 ft | 438 kts | 240° |
| 2026-05-06 18:21 | 51.22438 | 8.24384 | 24882 ft | 435 kts | 240° |
| 2026-05-06 18:21 | 51.20924 | 8.20227 | 24302 ft | 431 kts | 239° |
| 2026-05-06 18:22 | 51.19416 | 8.16114 | 23726 ft | 428 kts | 239° |
| 2026-05-06 18:22 | 51.17919 | 8.12034 | 23132 ft | 425 kts | 239° |
| 2026-05-06 18:22 | 51.16450 | 8.08040 | 22480 ft | 422 kts | 239° |
| 2026-05-06 18:22 | 51.14962 | 8.04002 | 21828 ft | 422 kts | 239° |
| 2026-05-06 18:23 | 51.13481 | 7.99986 | 21205 ft | 419 kts | 240° |
| 2026-05-06 18:23 | 51.12013 | 7.95998 | 20594 ft | 415 kts | 240° |
| 2026-05-06 18:23 | 51.10559 | 7.92051 | 19992 ft | 412 kts | 240° |
| 2026-05-06 18:23 | 51.09115 | 7.88140 | 19395 ft | 408 kts | 240° |
| 2026-05-06 18:24 | 51.07632 | 7.84314 | 18829 ft | 405 kts | 234° |
| 2026-05-06 18:24 | 51.05793 | 7.80948 | 18235 ft | 401 kts | 229° |
| 2026-05-06 18:24 | 51.04259 | 7.77308 | 17597 ft | 395 kts | 243° |
| 2026-05-06 18:24 | 51.03012 | 7.73443 | 17041 ft | 391 kts | 243° |
| 2026-05-06 18:25 | 51.01808 | 7.69667 | 16516 ft | 386 kts | 244° |
| 2026-05-06 18:25 | 51.00605 | 7.65890 | 15974 ft | 383 kts | 244° |
| 2026-05-06 18:25 | 50.99412 | 7.62133 | 15422 ft | 380 kts | 243° |
| 2026-05-06 18:25 | 50.98228 | 7.58399 | 14869 ft | 377 kts | 243° |
| 2026-05-06 18:26 | 50.97055 | 7.54705 | 14305 ft | 375 kts | 244° |
| 2026-05-06 18:26 | 50.95847 | 7.51013 | 13569 ft | 378 kts | 243° |
| 2026-05-06 18:26 | 50.94622 | 7.47324 | 12886 ft | 377 kts | 244° |
| 2026-05-06 18:26 | 50.93398 | 7.43660 | 12218 ft | 375 kts | 244° |
| 2026-05-06 18:27 | 50.92180 | 7.40022 | 11642 ft | 371 kts | 243° |
| 2026-05-06 18:27 | 50.90999 | 7.36515 | 11510 ft | 354 kts | 243° |
| 2026-05-06 18:27 | 50.89857 | 7.33138 | 11390 ft | 339 kts | 243° |
| 2026-05-06 18:27 | 50.88762 | 7.29918 | 11260 ft | 325 kts | 243° |
| 2026-05-06 18:28 | 50.87705 | 7.26823 | 11135 ft | 313 kts | 243° |
| 2026-05-06 18:28 | 50.86699 | 7.23890 | 11011 ft | 302 kts | 243° |
| 2026-05-06 18:28 | 50.85712 | 7.21025 | 10886 ft | 290 kts | 243° |
| 2026-05-06 18:28 | 50.84746 | 7.18233 | 10474 ft | 291 kts | 243° |
| 2026-05-06 18:29 | 50.83770 | 7.15419 | 10065 ft | 292 kts | 243° |
| 2026-05-06 18:29 | 50.82788 | 7.12601 | 9691 ft | 292 kts | 243° |
| 2026-05-06 18:29 | 50.81809 | 7.09795 | 9298 ft | 290 kts | 243° |
| 2026-05-06 18:29 | 50.80838 | 7.07012 | 8923 ft | 288 kts | 242° |
| 2026-05-06 18:30 | 50.79541 | 7.04634 | 8632 ft | 286 kts | 216° |
| 2026-05-06 18:30 | 50.77743 | 7.03472 | 8482 ft | 277 kts | 187° |
| 2026-05-06 18:30 | 50.75881 | 7.03750 | 8361 ft | 266 kts | 158° |
| 2026-05-06 18:30 | 50.74408 | 7.05291 | 8230 ft | 254 kts | 133° |
| 2026-05-06 18:31 | 50.73240 | 7.07311 | 8097 ft | 245 kts | 129° |
| 2026-05-06 18:31 | 50.72145 | 7.09321 | 7907 ft | 239 kts | 128° |
| 2026-05-06 18:31 | 50.71053 | 7.11352 | 7332 ft | 250 kts | 129° |
| 2026-05-06 18:31 | 50.69912 | 7.13509 | 6812 ft | 259 kts | 128° |
| 2026-05-06 18:32 | 50.68744 | 7.15736 | 6288 ft | 267 kts | 129° |
| 2026-05-06 18:32 | 50.67712 | 7.18151 | 5910 ft | 265 kts | 110° |
| 2026-05-06 18:32 | 50.67432 | 7.20979 | 5536 ft | 261 kts | 86° |
| 2026-05-06 18:32 | 50.67520 | 7.23794 | 5079 ft | 264 kts | 83° |
| 2026-05-06 18:33 | 50.67647 | 7.26714 | 4601 ft | 267 kts | 84° |
| 2026-05-06 18:33 | 50.67786 | 7.29627 | 4144 ft | 265 kts | 83° |
| 2026-05-06 18:33 | 50.67921 | 7.32507 | 3730 ft | 263 kts | 83° |
| 2026-05-06 18:33 | 50.68259 | 7.35291 | 3333 ft | 256 kts | 62° |
| 2026-05-06 18:34 | 50.69432 | 7.37210 | 3205 ft | 240 kts | 24° |
| 2026-05-06 18:34 | 50.71010 | 7.37489 | 3088 ft | 226 kts | 344° |
| 2026-05-06 18:34 | 50.72252 | 7.36118 | 3017 ft | 219 kts | 309° |
| 2026-05-06 18:34 | 50.73169 | 7.34343 | 3008 ft | 203 kts | 317° |
| 2026-05-06 18:35 | 50.74172 | 7.32893 | 3022 ft | 190 kts | 320° |
| 2026-05-06 18:35 | 50.75145 | 7.31514 | 3016 ft | 187 kts | 319° |
| 2026-05-06 18:35 | 50.76104 | 7.30142 | 2874 ft | 185 kts | 319° |
| 2026-05-06 18:35 | 50.77044 | 7.28792 | 2642 ft | 181 kts | 319° |
| 2026-05-06 18:36 | 50.77967 | 7.27465 | 2409 ft | 178 kts | 319° |
| 2026-05-06 18:36 | 50.78872 | 7.26162 | 2168 ft | 175 kts | 319° |
| 2026-05-06 18:36 | 50.79750 | 7.24897 | 1930 ft | 166 kts | 319° |
| 2026-05-06 18:36 | 50.80577 | 7.23704 | 1710 ft | 155 kts | 319° |
| 2026-05-06 18:37 | 50.81345 | 7.22593 | 1493 ft | 145 kts | 319° |
| 2026-05-06 18:37 | 50.82069 | 7.21557 | 1264 ft | 140 kts | 318° |
| 2026-05-06 18:37 | 50.82779 | 7.20530 | 1074 ft | 137 kts | 317° |
| 2026-05-06 18:37 | 50.83463 | 7.19546 | 906 ft | 129 kts | 317° |
| 2026-05-06 18:38 | 50.84130 | 7.18581 | 752 ft | 130 kts | 316° |
| 2026-05-06 18:38 | 50.84802 | 7.17605 | 582 ft | 131 kts | 318° |
| 2026-05-06 18:38 | 50.85477 | 7.16637 | 387 ft | 129 kts | 317° |
| 2026-05-06 18:38 | 50.86094 | 7.15741 | 285 ft | 103 kts | 317° |
| 2026-05-06 18:39 | 50.86498 | 7.15152 | 266 ft | 61 kts | 317° |
| 2026-05-06 18:39 | 50.86768 | 7.14758 | 258 ft | 32 kts | 317° |
| 2026-05-06 18:39 | 50.86873 | 7.14466 | 257 ft | 23 kts | 281° |
| 2026-05-06 18:40 | 50.86955 | 7.14031 | 250 ft | 24 kts | 316° |
| 2026-05-06 18:40 | 50.87084 | 7.13847 | 246 ft | 26 kts | 317° |
| 2026-05-06 18:40 | 50.87223 | 7.13645 | 241 ft | 28 kts | 317° |
| 2026-05-06 18:40 | 50.87370 | 7.13430 | 237 ft | 29 kts | 318° |
| 2026-05-06 18:41 | 50.87524 | 7.13209 | 232 ft | 31 kts | 319° |
| 2026-05-06 18:41 | 50.87657 | 7.13014 | 231 ft | 24 kts | 316° |
| 2026-05-06 18:41 | 50.87761 | 7.12858 | 232 ft | 14 kts | 316° |
| 2026-05-06 18:41 | 50.87787 | 7.12719 | 231 ft | 14 kts | 267° |
| 2026-05-06 18:42 | 50.87839 | 7.12618 | 230 ft | 12 kts | 343° |
| 2026-05-06 18:42 | 50.87923 | 7.12602 | 233 ft | 12 kts | 335° |
| 2026-05-06 18:42 | 50.87991 | 7.12509 | 231 ft | 13 kts | 316° |
| 2026-05-06 18:42 | 50.88026 | 7.12456 | 230 ft | 2 kts | 311° |
| 2026-05-06 18:43 | 50.88022 | 7.12430 | 230 ft | 4 kts | 233° |
| 2026-05-06 18:43 | 50.87996 | 7.12388 | 230 ft | 6 kts | 218° |
| 2026-05-06 18:43 | 50.87978 | 7.12367 | 230 ft | 0 kts | 216° |